Time;durP1;ratioP1;P1;durP2;ratioP2;P2;SDS_P1;SDS_P2;PMS_P1;PMS_P2;Temp;Humidity;BMP_temperature;BMP_pressure;BME280_temperature;BME280_humidity;BME280_pressure;Samples;Min_cycle;Max_cycle;Signal;HPM_P1;HPM_P2
2021/10/06 00:02:10;;;;;;;6.00;2.67;;;;;;;9.59;100.00;100544.44;2613801;36;20042;-69
2021/10/06 00:04:39;;;;;;;4.68;2.40;;;;;;;9.57;100.00;100552.66;2613477;36;20618;-68
2021/10/06 00:07:07;;;;;;;6.27;2.70;;;;;;;9.58;100.00;100545.44;2613575;36;20772;-69
2021/10/06 00:09:35;;;;;;;7.28;3.08;;;;;;;9.58;100.00;100553.50;2613519;36;20158;-71
2021/10/06 00:12:04;;;;;;;6.28;2.88;;;;;;;9.58;100.00;100545.44;2613006;31;20605;-70
2021/10/06 00:14:34;;;;;;;6.60;3.33;;;;;;;9.59;100.00;100539.09;2613710;36;20068;-68
2021/10/06 00:17:03;;;;;;;6.65;3.40;;;;;;;9.55;100.00;100538.50;2613161;36;20154;-69
2021/10/06 00:19:31;;;;;;;6.97;3.63;;;;;;;9.63;100.00;100538.66;2612806;36;20126;-69
2021/10/06 00:22:00;;;;;;;8.75;4.00;;;;;;;9.62;100.00;100547.69;2612252;36;20118;-71
2021/10/06 00:24:28;;;;;;;8.63;3.47;;;;;;;9.66;100.00;100542.91;2612804;36;20031;-69
2021/10/06 00:26:57;;;;;;;6.80;3.80;;;;;;;9.65;100.00;100543.91;2613856;36;20129;-70
2021/10/06 00:29:25;;;;;;;12.77;4.03;;;;;;;9.67;100.00;100541.91;2613365;36;20129;-69
2021/10/06 00:31:55;;;;;;;4.95;3.60;;;;;;;9.68;100.00;100537.41;2613098;36;20642;-69
2021/10/06 00:34:24;;;;;;;14.98;4.45;;;;;;;9.66;100.00;100540.22;2612876;31;20658;-68
2021/10/06 00:36:52;;;;;;;8.35;4.53;;;;;;;9.70;100.00;100540.78;2613591;36;20251;-69
2021/10/06 00:39:20;;;;;;;7.47;5.50;;;;;;;9.70;100.00;100548.84;2613196;36;20424;-67
2021/10/06 00:41:48;;;;;;;7.45;5.10;;;;;;;9.74;100.00;100548.44;2613657;36;20581;-66
2021/10/06 00:44:18;;;;;;;15.00;5.70;;;;;;;9.74;100.00;100543.06;2613205;36;20122;-66
2021/10/06 00:46:46;;;;;;;8.88;5.18;;;;;;;9.78;100.00;100547.16;2612966;36;20612;-68
2021/10/06 00:49:19;;;;;;;11.83;4.80;;;;;;;9.82;100.00;100551.28;2613554;36;20160;-68
2021/10/06 00:51:47;;;;;;;13.30;5.70;;;;;;;9.85;100.00;100533.16;2613686;36;20528;-65
2021/10/06 00:54:15;;;;;;;9.15;5.28;;;;;;;9.93;100.00;100549.47;2613932;36;20244;-68
2021/10/06 00:56:44;;;;;;;10.02;4.65;;;;;;;9.95;100.00;100552.84;2614581;36;20114;-68
2021/10/06 00:59:12;;;;;;;13.75;5.25;;;;;;;9.97;100.00;100553.59;2614400;36;20076;-67
2021/10/06 01:01:40;;;;;;;8.60;5.38;;;;;;;9.99;100.00;100554.28;2613666;36;20553;-69
2021/10/06 01:04:08;;;;;;;11.93;5.65;;;;;;;9.96;100.00;100549.19;2613789;36;20114;-67
2021/10/06 01:06:40;;;;;;;8.68;5.80;;;;;;;9.93;100.00;100546.78;2614367;36;20117;-68
2021/10/06 01:09:08;;;;;;;15.45;6.18;;;;;;;9.94;100.00;100553.88;2614021;36;20026;-67
2021/10/06 01:11:37;;;;;;;10.03;6.17;;;;;;;9.92;100.00;100562.06;2613584;36;20253;-67
2021/10/06 01:14:05;;;;;;;12.20;6.32;;;;;;;9.92;100.00;100561.19;2613600;31;20121;-68
2021/10/06 01:16:34;;;;;;;9.25;6.45;;;;;;;9.95;100.00;100561.78;2613621;36;20069;-67
2021/10/06 01:19:02;;;;;;;10.13;6.68;;;;;;;9.93;100.00;100568.28;2614354;36;20113;-67
2021/10/06 01:21:33;;;;;;;12.95;6.88;;;;;;;9.98;100.00;100574.06;2613634;36;20149;-69
2021/10/06 01:24:02;;;;;;;13.25;6.45;;;;;;;10.00;100.00;100564.06;2613726;36;20145;-67
2021/10/06 01:26:30;;;;;;;8.23;6.85;;;;;;;10.01;100.00;100563.03;2614861;36;20049;-66
2021/10/06 01:28:58;;;;;;;10.82;6.82;;;;;;;10.00;100.00;100564.06;2613851;36;20039;-68
2021/10/06 01:31:29;;;;;;;12.90;7.05;;;;;;;10.02;100.00;100567.44;2613925;36;20133;-66
2021/10/06 01:33:57;;;;;;;15.07;7.20;;;;;;;10.06;100.00;100570.72;2613827;31;20118;-66
2021/10/06 01:36:25;;;;;;;12.95;6.70;;;;;;;10.09;100.00;100573.97;2613965;36;20594;-67
2021/10/06 01:38:56;;;;;;;13.02;6.53;;;;;;;10.11;100.00;100574.66;2614210;36;20177;-69
2021/10/06 01:41:24;;;;;;;15.55;6.45;;;;;;;10.11;100.00;100585.41;2614375;36;20112;-65
2021/10/06 01:43:52;;;;;;;11.25;5.88;;;;;;;10.12;100.00;100573.69;2613854;36;20718;-66
2021/10/06 01:46:21;;;;;;;17.55;6.20;;;;;;;10.12;100.00;100564.78;2613842;36;20162;-66
2021/10/06 01:48:49;;;;;;;14.55;6.30;;;;;;;10.07;100.00;100565.19;2613934;36;20118;-66
2021/10/06 01:51:17;;;;;;;13.18;5.28;;;;;;;10.09;100.00;100573.97;2614350;36;20121;-68
2021/10/06 01:53:45;;;;;;;10.13;5.15;;;;;;;10.08;100.00;100569.56;2614178;36;20168;-67
2021/10/06 01:56:16;;;;;;;14.80;5.33;;;;;;;10.09;100.00;100562.38;2614309;36;20031;-67
2021/10/06 01:58:47;;;;;;;10.57;4.35;;;;;;;10.09;100.00;100584.72;2613865;36;20129;-66
2021/10/06 02:01:16;;;;;;;8.88;4.22;;;;;;;10.11;100.00;100581.88;2612593;36;20034;-67
2021/10/06 02:03:44;;;;;;;11.68;4.75;;;;;;;10.11;100.00;100576.50;2614038;36;20513;-66
2021/10/06 02:06:12;;;;;;;10.27;3.80;;;;;;;10.12;100.00;100584.44;2614160;36;20085;-67
2021/10/06 02:08:40;;;;;;;11.13;4.65;;;;;;;10.10;100.00;100586.44;2612933;36;20042;-67
2021/10/06 02:11:09;;;;;;;8.35;4.22;;;;;;;10.09;100.00;100582.03;2613727;36;20154;-68
2021/10/06 02:13:39;;;;;;;15.27;4.63;;;;;;;10.06;100.00;100585.00;2614627;36;20050;-68
2021/10/06 02:16:08;;;;;;;10.45;4.55;;;;;;;10.06;100.00;100576.94;2614572;36;20744;-69
2021/10/06 02:18:36;;;;;;;8.53;3.87;;;;;;;10.12;100.00;100587.13;2614027;36;20038;-68
2021/10/06 02:21:05;;;;;;;17.20;4.28;;;;;;;10.10;100.00;100586.44;2613700;36;20157;-68
2021/10/06 02:23:33;;;;;;;10.07;4.70;;;;;;;10.10;100.00;100591.81;2614140;36;20022;-69
2021/10/06 02:26:01;;;;;;;13.75;4.55;;;;;;;10.11;100.00;100577.34;2614041;36;20421;-68
2021/10/06 02:28:29;;;;;;;14.40;4.30;;;;;;;10.11;100.00;100576.50;2614678;36;20530;-69
2021/10/06 02:31:00;;;;;;;8.60;4.13;;;;;;;10.03;100.00;100579.91;2613033;36;21023;-69
2021/10/06 02:33:28;;;;;;;14.27;4.65;;;;;;;10.00;100.00;100582.88;2613428;36;20141;-68
2021/10/06 02:35:57;;;;;;;9.25;3.47;;;;;;;9.98;100.00;100576.78;2613789;36;20652;-68
2021/10/06 02:38:25;;;;;;;8.73;3.03;;;;;;;9.92;100.00;100569.25;2613676;36;20113;-69
2021/10/06 02:40:53;;;;;;;7.03;2.50;;;;;;;9.93;100.00;100577.19;2613030;36;20634;-69
2021/10/06 02:43:21;;;;;;;8.00;2.40;;;;;;;9.94;100.00;100570.00;2613883;36;20121;-69
2021/10/06 02:45:49;;;;;;;5.72;2.00;;;;;;;9.97;100.00;100569.72;2613917;36;20056;-69
2021/10/06 02:48:21;;;;;;;6.78;1.90;;;;;;;9.99;100.00;100567.72;2615181;36;20074;-67
2021/10/06 02:50:50;;;;;;;7.15;2.40;;;;;;;9.95;100.00;100574.38;2614121;36;20419;-66
2021/10/06 02:53:18;;;;;;;8.98;2.90;;;;;;;9.94;100.00;100570.84;2614948;36;20509;-67
2021/10/06 02:55:47;;;;;;;5.22;2.72;;;;;;;9.95;100.00;100569.84;2613670;36;20177;-67
2021/10/06 02:58:15;;;;;;;8.82;3.90;;;;;;;9.94;100.00;100570.84;2614047;36;20153;-66
2021/10/06 03:00:43;;;;;;;8.80;4.95;;;;;;;9.91;100.00;100583.69;2613802;36;20142;-66
2021/10/06 03:03:11;;;;;;;9.52;5.18;;;;;;;9.96;100.00;100589.50;2613850;36;20126;-67
2021/10/06 03:05:42;;;;;;;10.45;5.30;;;;;;;9.94;100.00;100583.44;2613765;36;20540;-68
2021/10/06 03:08:10;;;;;;;11.60;5.28;;;;;;;9.97;100.00;100596.59;2613856;31;20154;-67
2021/10/06 03:10:39;;;;;;;13.52;5.60;;;;;;;9.94;100.00;100584.28;2615173;36;20146;-65
2021/10/06 03:13:07;;;;;;;11.30;5.35;;;;;;;9.94;100.00;100591.50;2614130;47;20154;-64
2021/10/06 03:15:35;;;;;;;15.85;6.25;;;;;;;9.92;100.00;100580.88;2613543;31;20173;-64
2021/10/06 03:18:03;;;;;;;13.13;5.15;;;;;;;9.98;100.00;100584.84;2613960;36;20596;-64
2021/10/06 03:20:32;;;;;;;11.82;6.57;;;;;;;9.88;100.00;100581.28;2613367;36;20030;-65
2021/10/06 03:23:04;;;;;;;19.15;7.15;;;;;;;9.87;100.00;100606.47;2614628;36;20061;-66
2021/10/06 03:25:33;;;;;;;16.88;7.80;;;;;;;9.85;100.00;100612.00;2613222;36;20121;-64
2021/10/06 03:28:02;;;;;;;19.38;7.78;;;;;;;9.82;100.00;100605.06;2614115;36;20117;-65
2021/10/06 03:30:30;;;;;;;13.43;7.47;;;;;;;9.78;100.00;100603.63;2614608;31;20146;-65
2021/10/06 03:32:58;;;;;;;14.57;7.32;;;;;;;9.78;100.00;100605.47;2614446;31;20160;-66
2021/10/06 03:35:26;;;;;;;12.35;6.50;;;;;;;9.78;100.00;100609.00;2612725;36;20615;-65
2021/10/06 03:37:55;;;;;;;14.02;6.72;;;;;;;9.75;100.00;100614.66;2613304;36;20169;-66
2021/10/06 03:40:26;;;;;;;15.45;6.72;;;;;;;9.73;100.00;100613.94;2613563;36;20034;-66
2021/10/06 03:42:55;;;;;;;14.48;6.47;;;;;;;9.71;100.00;100621.28;2614134;36;20057;-67
2021/10/06 03:45:23;;;;;;;9.60;5.00;;;;;;;9.71;100.00;100623.97;2614058;31;20035;-65
2021/10/06 03:47:51;;;;;;;10.27;5.10;;;;;;;9.66;100.00;100626.22;2613626;36;20057;-66
2021/10/06 03:50:20;;;;;;;9.70;4.65;;;;;;;9.66;100.00;100626.22;2612895;36;20061;-66
2021/10/06 03:52:48;;;;;;;7.63;4.15;;;;;;;9.70;100.00;100633.03;2614818;36;20388;-66
2021/10/06 03:55:17;;;;;;;13.93;3.90;;;;;;;9.63;100.00;100631.88;2613349;36;20137;-65
2021/10/06 03:57:48;;;;;;;7.57;3.73;;;;;;;9.64;100.00;100633.56;2614205;36;20038;-66
2021/10/06 04:00:16;;;;;;;8.98;4.32;;;;;;;9.64;100.00;100638.94;2614018;36;20134;-66
2021/10/06 04:02:45;;;;;;;10.70;4.70;;;;;;;9.63;100.00;100631.88;2613334;36;20127;-65
2021/10/06 04:05:13;;;;;;;11.60;4.43;;;;;;;9.63;100.00;100626.50;2613790;36;20114;-64
2021/10/06 04:07:42;;;;;;;10.20;4.35;;;;;;;9.60;100.00;100632.16;2612278;31;20642;-65
2021/10/06 04:10:11;;;;;;;8.95;5.35;;;;;;;9.59;100.00;100630.44;2613542;31;20542;-65
2021/10/06 04:12:39;;;;;;;7.80;5.07;;;;;;;9.56;100.00;100636.09;2612872;36;20141;-66
2021/10/06 04:15:11;;;;;;;11.85;5.35;;;;;;;9.55;100.00;100632.53;2614102;36;20030;-66
2021/10/06 04:17:39;;;;;;;11.07;4.85;;;;;;;9.57;100.00;100629.69;2613317;36;20130;-64
2021/10/06 04:20:08;;;;;;;11.93;5.85;;;;;;;9.52;100.00;100629.28;2613245;36;20494;-65
2021/10/06 04:22:36;;;;;;;8.57;4.72;;;;;;;9.58;100.00;100636.78;2613806;36;20129;-66
2021/10/06 04:25:06;;;;;;;8.05;5.03;;;;;;;9.60;100.00;100632.16;2613113;36;20118;-67
2021/10/06 04:27:34;;;;;;;;;;;;;;;9.55;100.00;100629.84;2614664;31;20121;-66
2021/10/06 04:30:02;;;;;;;8.93;4.03;;;;;;;9.57;100.00;100632.38;2614233;36;20050;-67
2021/10/06 04:32:33;;;;;;;8.18;4.07;;;;;;;9.54;100.00;100628.16;2614076;36;20129;-65
2021/10/06 04:35:01;;;;;;;8.30;4.38;;;;;;;9.51;100.00;100628.44;2614063;36;20157;-65
2021/10/06 04:37:29;;;;;;;9.07;4.05;;;;;;;9.51;100.00;100630.25;2614064;36;20153;-66
2021/10/06 04:39:57;;;;;;;8.00;4.03;;;;;;;9.53;100.00;100625.59;2614036;36;20642;-66
2021/10/06 04:42:26;;;;;;;7.18;4.07;;;;;;;9.52;100.00;100630.09;2614182;36;20114;-67
2021/10/06 04:44:54;;;;;;;8.82;4.30;;;;;;;9.45;100.00;100628.94;2614965;36;20533;-67
2021/10/06 04:47:22;;;;;;;10.98;4.35;;;;;;;9.49;100.00;100629.53;2614339;31;20487;-67
2021/10/06 04:49:53;;;;;;;8.48;4.25;;;;;;;9.42;100.00;100635.47;2614057;36;20813;-67
2021/10/06 04:52:21;;;;;;;7.90;3.85;;;;;;;9.43;100.00;100625.56;2614263;36;20106;-67
2021/10/06 04:54:52;;;;;;;9.35;2.83;;;;;;;9.41;100.00;100633.75;2613698;36;20137;-69
2021/10/06 04:57:21;;;;;;;8.75;3.38;;;;;;;9.44;100.00;100633.47;2614300;36;20065;-67
2021/10/06 04:59:49;;;;;;;10.43;3.45;;;;;;;9.41;100.00;100628.38;2614598;36;20149;-67
2021/10/06 05:02:17;;;;;;;7.40;3.35;;;;;;;9.39;100.00;100624.13;2614804;36;20495;-67
2021/10/06 05:04:45;;;;;;;8.52;3.85;;;;;;;9.41;100.00;100628.38;2613467;36;20647;-67
2021/10/06 05:07:16;;;;;;;6.65;3.47;;;;;;;9.44;100.00;100632.63;2613782;31;20626;-68
2021/10/06 05:12:23;;;;;;;9.35;3.33;;;;;;;9.41;100.00;100625.69;2613023;36;20035;-66
2021/10/06 05:14:52;;;;;;;6.15;3.70;;;;;;;9.42;100.00;100635.47;2614629;36;20031;-65
2021/10/06 05:17:20;;;;;;;10.82;3.78;;;;;;;9.43;100.00;100636.31;2614246;36;20560;-66
2021/10/06 05:19:48;;;;;;;8.73;2.80;;;;;;;9.46;100.00;100626.13;2613977;36;20662;-64
2021/10/06 05:22:19;;;;;;;9.30;3.30;;;;;;;9.42;100.00;100630.09;2614430;36;20133;-64
2021/10/06 05:24:47;;;;;;;7.38;2.85;;;;;;;9.46;100.00;100631.50;2613851;36;20030;-64
2021/10/06 05:27:15;;;;;;;8.18;3.47;;;;;;;9.42;100.00;100624.72;2614513;36;20669;-62
2021/10/06 05:29:43;;;;;;;7.72;3.60;;;;;;;9.41;100.00;100617.63;2614077;36;20177;-63
2021/10/06 05:32:12;;;;;;;7.35;3.55;;;;;;;9.44;100.00;100616.53;2613388;36;20396;-64
2021/10/06 05:34:40;;;;;;;7.63;4.18;;;;;;;9.43;100.00;100626.41;2614010;36;20473;-64
2021/10/06 05:37:08;;;;;;;9.68;4.43;;;;;;;9.43;100.00;100610.28;2614651;36;20129;-64
2021/10/06 05:39:39;;;;;;;8.68;4.57;;;;;;;9.42;100.00;100608.59;2614118;36;20027;-64
2021/10/06 05:42:07;;;;;;;10.77;6.22;;;;;;;9.44;100.00;100616.53;2613603;36;20030;-64
2021/10/06 05:44:36;;;;;;;14.93;7.47;;;;;;;9.45;100.00;100611.00;2613764;36;20114;-64
2021/10/06 05:49:36;;;;;;;15.05;8.20;;;;;;;9.44;100.00;100603.94;2613578;36;20030;-65
2021/10/06 05:52:05;;;;;;;15.57;8.38;;;;;;;9.47;100.00;100606.34;2613359;36;20128;-65
2021/10/06 05:54:34;;;;;;;16.90;9.23;;;;;;;9.45;100.00;100611.00;2614461;36;20121;-65
2021/10/06 05:57:06;;;;;;;16.73;9.73;;;;;;;9.48;100.00;100612.56;2614266;36;20030;-65
2021/10/06 05:59:34;;;;;;;14.00;9.75;;;;;;;9.49;100.00;100624.16;2613466;36;20134;-65
2021/10/06 06:02:03;;;;;;;15.95;9.20;;;;;;;9.51;100.00;100627.56;2613031;36;20034;-64
2021/10/06 06:04:31;;;;;;;17.43;10.37;;;;;;;9.50;100.00;100625.88;2613838;36;20142;-64
2021/10/06 06:07:00;;;;;;;18.27;10.07;;;;;;;9.50;100.00;100631.25;2614161;36;20299;-64
2021/10/06 06:09:28;;;;;;;13.93;10.30;;;;;;;9.53;100.00;100625.59;2613209;36;20161;-63
2021/10/06 06:11:56;;;;;;;13.88;9.07;;;;;;;9.57;100.00;100627.00;2614143;36;20122;-64
2021/10/06 06:14:27;;;;;;;18.38;10.65;;;;;;;9.56;100.00;100623.50;2613136;36;20653;-65
2021/10/06 06:16:56;;;;;;;14.80;10.52;;;;;;;9.55;100.00;100623.63;2613030;36;20603;-66
2021/10/06 06:19:24;;;;;;;14.20;9.38;;;;;;;9.60;100.00;100627.59;2613349;36;20056;-65
2021/10/06 06:21:53;;;;;;;13.55;9.90;;;;;;;9.62;100.00;100633.69;2613805;36;20035;-65
2021/10/06 06:24:21;;;;;;;16.08;9.63;;;;;;;9.62;100.00;100624.78;2612644;36;20030;-64
2021/10/06 06:26:49;;;;;;;15.52;9.05;;;;;;;9.68;100.00;100632.28;2608822;36;20030;-65
2021/10/06 06:29:17;;;;;;;12.45;9.70;;;;;;;9.69;100.00;100639.38;2611013;36;20138;-64
2021/10/06 06:31:48;;;;;;;17.67;10.07;;;;;;;9.69;100.00;100636.69;2613565;31;20137;-63
2021/10/06 06:34:16;;;;;;;16.90;10.90;;;;;;;9.70;100.00;100643.78;2613813;31;20122;-64
2021/10/06 06:36:45;;;;;;;15.45;9.68;;;;;;;9.73;100.00;100646.19;2613399;36;20113;-64
2021/10/06 06:39:13;;;;;;;15.10;9.10;;;;;;;9.75;100.00;100640.69;2612731;36;20133;-65
2021/10/06 06:41:41;;;;;;;14.93;9.43;;;;;;;9.76;100.00;100653.97;2613872;36;20593;-65
2021/10/06 06:44:09;;;;;;;20.00;8.93;;;;;;;9.77;100.00;100655.66;2613622;36;20145;-65
2021/10/06 06:46:39;;;;;;;11.98;7.78;;;;;;;9.81;100.00;100651.72;2612373;36;20122;-66
2021/10/06 06:49:10;;;;;;;9.13;6.47;;;;;;;9.87;100.00;100661.09;2612558;36;20030;-66
2021/10/06 06:51:38;;;;;;;10.57;6.50;;;;;;;9.91;100.00;100653.59;2614057;31;20649;-65
2021/10/06 06:54:06;;;;;;;10.57;6.05;;;;;;;9.93;100.00;100655.16;2613605;36;20627;-65
2021/10/06 06:56:38;;;;;;;11.18;6.00;;;;;;;9.99;100.00;100659.13;2611761;36;20661;-65
2021/10/06 06:59:08;;;;;;;8.50;5.25;;;;;;;10.06;100.00;100673.72;2613375;36;20034;-66
2021/10/06 07:01:36;;;;;;;9.90;5.57;;;;;;;10.12;100.00;100662.41;2612813;36;20161;-65
2021/10/06 07:04:05;;;;;;;8.98;5.75;;;;;;;10.17;100.00;100673.63;2612997;36;20655;-64
2021/10/06 07:06:36;;;;;;;13.00;6.28;;;;;;;10.23;100.00;100676.75;2612469;36;20563;-64
2021/10/06 07:09:06;;;;;;;9.35;5.72;;;;;;;10.22;100.00;100681.28;2612970;36;20153;-65
2021/10/06 07:14:04;;;;;;;11.32;5.50;;;;;;;10.25;100.00;100685.53;2614996;36;20041;-65
2021/10/06 07:16:32;;;;;;;11.25;4.95;;;;;;;10.27;100.00;100694.31;2613078;36;20129;-66
2021/10/06 07:19:00;;;;;;;6.70;5.45;;;;;;;10.25;100.00;100694.44;2613364;36;20130;-65
2021/10/06 07:21:28;;;;;;;10.90;4.90;;;;;;;10.28;100.00;100696.88;2613385;36;20884;-64
2021/10/06 07:23:59;;;;;;;10.40;4.40;;;;;;;10.28;100.00;100706.78;2614318;36;20117;-64
2021/10/06 07:26:27;;;;;;;7.45;3.60;;;;;;;10.34;100.00;100709.78;2613785;36;20519;-65
2021/10/06 07:28:56;;;;;;;12.35;3.90;;;;;;;10.38;100.00;100715.75;2613650;36;20038;-64
2021/10/06 07:31:24;;;;;;;5.95;2.30;;;;;;;10.39;100.00;100720.13;2610863;36;20583;-65
2021/10/06 07:33:53;;;;;;;8.75;2.28;;;;;;;10.40;100.00;100724.53;2613803;36;20682;-64
2021/10/06 07:36:24;;;;;;;4.07;2.38;;;;;;;10.40;100.00;100727.22;2614287;36;20026;-65
2021/10/06 07:38:52;;;;;;;5.43;1.65;;;;;;;10.37;100.00;100727.50;2613795;36;20039;-65
2021/10/06 07:41:23;;;;;;;4.18;1.90;;;;;;;10.45;100.00;100735.75;2613842;36;20653;-65
2021/10/06 07:43:51;;;;;;;3.22;1.77;;;;;;;10.40;100.00;100735.28;2613332;36;20631;-65
2021/10/06 07:46:20;;;;;;;4.57;2.00;;;;;;;10.40;100.00;100737.97;2613605;36;20511;-67
2021/10/06 07:48:48;;;;;;;4.80;2.10;;;;;;;10.54;100.00;100746.66;2613861;36;20030;-66
2021/10/06 07:51:16;;;;;;;8.40;2.50;;;;;;;10.43;100.00;100744.94;2612969;36;20710;-67
2021/10/06 07:53:45;;;;;;;5.28;2.22;;;;;;;10.51;100.00;100742.38;2613599;36;20034;-66
2021/10/06 07:56:13;;;;;;;5.82;2.50;;;;;;;10.57;100.00;100751.75;2612543;36;20641;-66
2021/10/06 07:58:44;;;;;;;7.93;2.47;;;;;;;10.54;100.00;100755.59;2613655;36;20118;-66
2021/10/06 08:01:12;;;;;;;5.85;2.90;;;;;;;10.54;100.00;100760.97;2614195;31;20133;-66
2021/10/06 08:03:41;;;;;;;9.25;2.95;;;;;;;10.57;100.00;100773.28;2614749;36;20481;-66
2021/10/06 08:06:09;;;;;;;8.90;3.60;;;;;;;10.52;100.00;100768.31;2614090;36;20630;-65
2021/10/06 08:08:37;;;;;;;7.28;3.92;;;;;;;10.55;100.00;100769.88;2614250;36;20138;-66
2021/10/06 08:11:05;;;;;;;8.07;4.20;;;;;;;10.53;100.00;100775.41;2614031;36;20168;-66
2021/10/06 08:13:34;;;;;;;6.60;3.83;;;;;;;10.59;100.00;100779.41;2615068;36;20649;-66
2021/10/06 08:16:05;;;;;;;7.07;3.67;;;;;;;10.72;100.00;100789.88;2616062;36;20034;-69
2021/10/06 08:18:33;;;;;;;9.80;4.65;;;;;;;10.62;100.00;100785.34;2615420;36;20031;-66
2021/10/06 08:21:01;;;;;;;5.80;3.53;;;;;;;10.67;100.00;100787.59;2615629;36;20030;-66
2021/10/06 08:23:31;;;;;;;8.55;3.97;;;;;;;10.73;100.00;100791.59;2615681;36;20126;-66
2021/10/06 08:26:00;;;;;;;7.07;4.18;;;;;;;10.79;100.00;100801.78;2615307;36;20026;-66
2021/10/06 08:28:28;;;;;;;;;;;;;;;10.84;100.00;100802.25;2615184;36;20038;-67
2021/10/06 08:30:57;;;;;;;7.60;3.92;;;;;;;10.91;100.00;100805.22;2614330;36;20092;-67
2021/10/06 08:33:28;;;;;;;7.60;3.70;;;;;;;10.96;100.00;100806.50;2613605;36;20133;-67
2021/10/06 08:35:56;;;;;;;5.93;3.65;;;;;;;11.08;100.00;100803.69;2615428;36;20134;-66
2021/10/06 08:38:24;;;;;;;8.30;3.85;;;;;;;11.18;100.00;100802.69;2614506;36;20142;-67
2021/10/06 08:40:53;;;;;;;9.25;3.50;;;;;;;11.21;100.00;100804.25;2614677;36;20069;-66
2021/10/06 08:43:22;;;;;;;5.35;3.47;;;;;;;11.30;100.00;100814.19;2615547;36;20061;-66
2021/10/06 08:45:50;;;;;;;4.87;3.20;;;;;;;11.47;100.00;100809.06;2615436;36;20125;-66
2021/10/06 08:48:18;;;;;;;3.92;2.70;;;;;;;11.49;100.00;100816.00;2614947;36;20311;-67
2021/10/06 08:50:49;;;;;;;5.22;2.72;;;;;;;11.71;100.00;100816.69;2614985;36;20114;-67
2021/10/06 08:53:17;;;;;;;5.05;2.60;;;;;;;11.57;100.00;100821.56;2615710;36;20065;-66
2021/10/06 08:55:45;;;;;;;4.65;2.30;;;;;;;11.52;100.00;100821.13;2616000;31;20092;-66
2021/10/06 08:58:14;;;;;;;4.28;2.05;;;;;;;11.71;100.00;100825.63;2615422;36;20129;-69
2021/10/06 09:00:56;;;;;;;3.85;2.10;;;;;;;11.83;100.00;100825.47;2615350;36;20125;-67
2021/10/06 09:03:29;;;;;;;4.43;2.20;;;;;;;12.02;100.00;100833.53;2615385;36;20158;-66
2021/10/06 09:06:08;;;;;;;5.80;1.80;;;;;;;11.99;100.00;100833.00;2615130;36;21371;-66
2021/10/06 09:08:37;;;;;;;4.50;1.85;;;;;;;12.18;100.00;100827.53;2615352;36;20498;-66
2021/10/06 09:11:07;;;;;;;;;;;;;;;12.43;100.00;100831.41;2613973;36;20606;-66
2021/10/06 09:13:36;;;;;;;;;;;;;;;12.49;100.00;100835.38;2615098;31;20042;-66
2021/10/06 09:16:06;;;;;;;4.82;2.10;;;;;;;12.46;100.00;100843.78;2615498;36;19954;-67
2021/10/06 09:18:34;;;;;;;;;;;;;;;12.60;100.00;100847.81;2615230;36;20555;-66
2021/10/06 09:21:07;;;;;;;5.05;2.50;;;;;;;12.76;100.00;100848.03;2614192;36;20126;-66
2021/10/06 09:23:38;;;;;;;4.95;2.35;;;;;;;12.93;100.00;100857.16;2614324;36;20137;-67
2021/10/06 09:26:08;;;;;;;4.50;2.65;;;;;;;12.99;100.00;100862.97;2614316;36;20616;-66
2021/10/06 09:28:39;;;;;;;8.43;2.50;;;;;;;13.08;100.00;100868.28;2613909;36;20509;-66
2021/10/06 09:31:10;;;;;;;6.55;2.30;;;;;;;13.16;100.00;100875.63;2614441;36;20586;-66
2021/10/06 09:33:41;;;;;;;6.68;2.70;;;;;;;13.04;100.00;100884.97;2614267;36;20646;-66
2021/10/06 09:36:15;;;;;;;5.30;2.33;;;;;;;13.14;100.00;100877.66;2614367;36;20114;-67
2021/10/06 09:38:47;;;;;;;11.52;2.53;;;;;;;13.21;100.00;100884.16;2615353;36;20077;-67
2021/10/06 09:41:36;;;;;;;9.90;3.00;;;;;;;13.07;100.00;100882.81;2615046;36;20058;-68
2021/10/06 09:44:09;;;;;;;;;;;;;;;12.95;100.00;100884.88;2615757;31;20157;-67
2021/10/06 09:46:49;;;;;;;5.97;2.22;;;;;;;12.74;100.00;100887.00;2615223;36;20106;-66
2021/10/06 09:49:27;;;;;;;9.45;2.40;;;;;;;12.78;100.00;100900.03;2615224;36;20618;-67
2021/10/06 09:52:14;;;;;;;9.90;2.70;;;;;;;12.99;100.00;100906.19;2614685;36;20045;-67
2021/10/06 09:54:42;;;;;;;12.00;2.53;;;;;;;12.95;100.00;100911.03;2615260;36;20501;-66
2021/10/06 09:57:11;;;;;;;10.68;2.40;;;;;;;12.94;100.00;100914.72;2614217;36;20118;-68
2021/10/06 09:59:39;;;;;;;8.35;2.20;;;;;;;13.17;100.00;100926.00;2615393;36;20062;-67
2021/10/06 10:02:07;;;;;;;8.10;2.30;;;;;;;13.25;100.00;100931.50;2614869;31;20519;-67
2021/10/06 10:04:36;;;;;;;6.57;2.05;;;;;;;13.51;100.00;100921.81;2613763;36;20035;-67
2021/10/06 10:07:07;;;;;;;9.17;2.07;;;;;;;13.52;100.00;100924.38;2613888;36;21187;-66
2021/10/06 10:09:35;;;;;;;9.15;2.03;;;;;;;13.55;100.00;100934.88;2613761;36;20030;-67
2021/10/06 10:12:04;;;;;;;8.73;2.08;;;;;;;13.76;100.00;100931.00;2614558;36;20559;-67
2021/10/06 10:14:33;;;;;;;8.63;2.40;;;;;;;13.89;100.00;100942.28;2614550;36;20034;-68
2021/10/06 10:17:01;;;;;;;6.53;2.17;;;;;;;13.76;100.00;100941.84;2613446;36;20145;-67
2021/10/06 10:19:30;;;;;;;8.65;1.98;;;;;;;13.67;100.00;100955.25;2612553;36;20146;-68
2021/10/06 10:22:01;;;;;;;7.07;1.85;;;;;;;13.71;100.00;100955.81;2613512;36;20557;-69
2021/10/06 10:24:32;;;;;;;5.63;1.80;;;;;;;13.33;100.00;100955.06;2614848;36;20598;-69
2021/10/06 10:27:03;;;;;;;8.48;2.58;;;;;;;13.29;100.00;100978.84;2613390;36;20184;-66
2021/10/06 10:29:46;;;;;;;10.45;2.75;;;;;;;13.33;100.00;100974.81;2613438;36;20159;-67
2021/10/06 10:32:17;;;;;;;9.35;2.42;;;;;;;13.50;100.00;100975.06;2612478;31;20038;-67
2021/10/06 10:35:01;;;;;;;6.30;2.10;;;;;;;13.66;100.00;100977.94;2612371;36;20127;-68
2021/10/06 10:38:14;;;;;;;6.82;2.25;;;;;;;13.79;100.00;100990.22;2613407;36;20030;-69
2021/10/06 10:40:58;;;;;;;9.35;2.50;;;;;;;13.93;100.00;100989.69;2613160;36;20039;-68
2021/10/06 10:43:30;;;;;;;5.80;1.90;;;;;;;14.12;100.00;100990.50;2612417;31;20031;-69
2021/10/06 10:46:11;;;;;;;8.20;2.10;;;;;;;13.76;100.00;100982.41;2614158;36;20434;-67
2021/10/06 10:49:01;;;;;;;4.32;1.52;;;;;;;13.82;100.00;100984.50;2613593;31;20026;-68
2021/10/06 10:51:46;;;;;;;6.05;1.50;;;;;;;14.37;100.00;100997.84;2614223;36;20031;-68
2021/10/06 10:54:15;;;;;;;3.72;1.95;;;;;;;14.61;100.00;100998.16;2614411;36;20750;-68
2021/10/06 10:56:53;;;;;;;4.55;1.70;;;;;;;14.69;100.00;100988.28;2614554;31;20133;-70
2021/10/06 10:59:23;;;;;;;4.78;1.40;;;;;;;14.41;100.00;100994.81;2614999;36;20501;-68
2021/10/06 11:04:23;;;;;;;4.75;1.40;;;;;;;14.54;100.00;101004.19;2614275;31;20546;-68
2021/10/06 11:06:53;;;;;;;5.15;1.63;;;;;;;14.26;100.00;101006.19;2615710;31;20605;-70
2021/10/06 11:09:46;;;;;;;6.72;2.33;;;;;;;14.33;100.00;101009.13;2614743;36;20121;-68
2021/10/06 11:12:34;;;;;;;6.68;2.05;;;;;;;14.34;100.00;100992.72;2614898;36;20022;-67
2021/10/06 11:15:38;;;;;;;7.77;2.10;;;;;;;14.58;100.00;101002.03;2615194;31;20551;-70
2021/10/06 11:18:19;;;;;;;6.30;2.20;;;;;;;14.47;100.00;101003.16;2614513;36;20566;-68
2021/10/06 11:20:50;;;;;;;4.78;2.08;;;;;;;14.69;100.00;100998.25;2614768;36;20023;-69
2021/10/06 11:23:41;;;;;;;5.78;1.90;;;;;;;14.52;100.00;101005.38;2615292;36;20423;-68
2021/10/06 11:26:11;;;;;;;5.07;1.83;;;;;;;14.55;100.00;101002.34;2614597;36;20454;-68
2021/10/06 11:28:43;;;;;;;6.30;1.70;;;;;;;14.61;100.00;101011.72;2614256;36;20031;-68
2021/10/06 11:31:12;;;;;;;6.68;1.92;;;;;;;14.92;100.00;101014.81;2614772;36;20125;-70
2021/10/06 11:33:41;;;;;;;;;;;;;;;14.56;100.00;101020.31;2615055;36;20029;-68
2021/10/06 11:36:18;;;;;;;5.25;1.13;;;;;;;14.54;100.00;101011.47;2614506;36;20066;-68
2021/10/06 11:38:48;;;;;;;3.50;1.23;;;;;;;14.62;100.00;101027.84;2615164;31;20109;-71
2021/10/06 11:41:16;;;;;;;3.83;1.08;;;;;;;14.44;100.00;101037.81;2614597;36;20521;-67
2021/10/06 11:43:50;;;;;;;3.78;1.10;;;;;;;14.29;100.00;101032.94;2614702;36;20208;-67